Aviation Digital Data Service (ADDS)

Output produced by METARs form (2131 UTC 16 February 2019)
found at http://www.aviationweather.gov/metar/data/
 
METAR text: OTHH 162100Z 32011KT 9999 FEW040CB SCT080 BKN120 21/15 Q1015 RETS NOSIG
Conditions at: OTHH (DOHA HAMAD INTL , QA) observed 2100 UTC 16 February 2019
Temperature: 21.0°C (70°F)
Dewpoint: 15.0°C (59°F) [RH = 69%]
Pressure (altimeter): 29.97 inches Hg (1015.0 mb)
Winds: from the NW (320 degrees) at 13 MPH (11 knots; 5.7 m/s)
Visibility: 6 or more miles (10+ km)
Ceiling: 12000 feet AGL
Clouds: few clouds at 4000 feet AGL
scattered clouds at 8000 feet AGL
broken clouds at 12000 feet AGL
Weather: no significant weather observed at this time

METAR text: OTHH 162000Z 33012KT 9999 TS FEW035 FEW040CB BKN100 22/15 Q1015 TEMPO -TSRA
Conditions at: OTHH (DOHA HAMAD INTL , QA) observed 2000 UTC 16 February 2019
Temperature: 22.0°C (72°F)
Dewpoint: 15.0°C (59°F) [RH = 65%]
Pressure (altimeter): 29.97 inches Hg (1015.0 mb)
Winds: from the NNW (330 degrees) at 14 MPH (12 knots; 6.2 m/s)
Visibility: 6 or more miles (10+ km)
Ceiling: 10000 feet AGL
Clouds: few clouds at 3500 feet AGL
few clouds at 4000 feet AGL
broken clouds at 10000 feet AGL
Weather: TS  (thunderstorm)

METAR text: OTHH 161900Z 34009KT 9999 FEW035 FEW040CB BKN100 22/14 Q1015 TEMPO -TSRA
Conditions at: OTHH (DOHA HAMAD INTL , QA) observed 1900 UTC 16 February 2019
Temperature: 22.0°C (72°F)
Dewpoint: 14.0°C (57°F) [RH = 60%]
Pressure (altimeter): 29.97 inches Hg (1015.0 mb)
Winds: from the NNW (340 degrees) at 10 MPH (9 knots; 4.6 m/s)
Visibility: 6 or more miles (10+ km)
Ceiling: 10000 feet AGL
Clouds: few clouds at 3500 feet AGL
few clouds at 4000 feet AGL
broken clouds at 10000 feet AGL
Weather: no significant weather observed at this time

METAR text: OTHH 161800Z 33009KT 9999 FEW035 BKN100 23/13 Q1015 NOSIG
Conditions at: OTHH (DOHA HAMAD INTL , QA) observed 1800 UTC 16 February 2019
Temperature: 23.0°C (73°F)
Dewpoint: 13.0°C (55°F) [RH = 53%]
Pressure (altimeter): 29.97 inches Hg (1015.0 mb)
Winds: from the NNW (330 degrees) at 10 MPH (9 knots; 4.6 m/s)
Visibility: 6 or more miles (10+ km)
Ceiling: 10000 feet AGL
Clouds: few clouds at 3500 feet AGL
broken clouds at 10000 feet AGL
Weather: no significant weather observed at this time

METAR text: OTHH 161700Z 34010KT 9999 FEW030 SCT120 23/13 Q1014 NOSIG
Conditions at: OTHH (DOHA HAMAD INTL , QA) observed 1700 UTC 16 February 2019
Temperature: 23.0°C (73°F)
Dewpoint: 13.0°C (55°F) [RH = 53%]
Pressure (altimeter): 29.94 inches Hg (1014.0 mb)
Winds: from the NNW (340 degrees) at 12 MPH (10 knots; 5.1 m/s)
Visibility: 6 or more miles (10+ km)
Ceiling: at least 12,000 feet AGL
Clouds: few clouds at 3000 feet AGL
scattered clouds at 12000 feet AGL
Weather: no significant weather observed at this time

METAR text: OTHH 161600Z 33012KT 9999 FEW040 SCT120 23/14 Q1013 NOSIG
Conditions at: OTHH (DOHA HAMAD INTL , QA) observed 1600 UTC 16 February 2019
Temperature: 23.0°C (73°F)
Dewpoint: 14.0°C (57°F) [RH = 57%]
Pressure (altimeter): 29.91 inches Hg (1013.0 mb)
Winds: from the NNW (330 degrees) at 14 MPH (12 knots; 6.2 m/s)
Visibility: 6 or more miles (10+ km)
Ceiling: at least 12,000 feet AGL
Clouds: few clouds at 4000 feet AGL
scattered clouds at 12000 feet AGL
Weather: no significant weather observed at this time

METAR text: OTHH 161500Z VRB02KT 9999 -RA FEW040 SCT120 24/14 Q1012 RERA NOSIG
Conditions at: OTHH (DOHA HAMAD INTL , QA) observed 1500 UTC 16 February 2019
Temperature: 24.0°C (75°F)
Dewpoint: 14.0°C (57°F) [RH = 54%]
Pressure (altimeter): 29.88 inches Hg (1012.0 mb)
Winds: variable direction winds at 2 MPH (2 knots; 1.0 m/s)
Visibility: 6 or more miles (10+ km)
Ceiling: at least 12,000 feet AGL
Clouds: few clouds at 4000 feet AGL
scattered clouds at 12000 feet AGL
Weather: -RA  (light rain)

METAR text: OTHH 161400Z 13007KT 100V160 8000 -RA FEW025 FEW035TCU BKN120 25/13 Q1011 NOSIG
Conditions at: OTHH (DOHA HAMAD INTL , QA) observed 1400 UTC 16 February 2019
Temperature: 25.0°C (77°F)
Dewpoint: 13.0°C (55°F) [RH = 47%]
Pressure (altimeter): 29.85 inches Hg (1011.0 mb)
Winds: from the SE (130 degrees) at 8 MPH (7 knots; 3.6 m/s)
Visibility: 5 miles ( 8 km)
Ceiling: 12000 feet AGL
Clouds: few clouds at 2500 feet AGL
few clouds at 3500 feet AGL
broken clouds at 12000 feet AGL
Weather: -RA  (light rain)

METAR text: OTHH 161300Z 16010KT 8000 FEW025 FEW040TCU BKN120 26/10 Q1011 NOSIG
Conditions at: OTHH (DOHA HAMAD INTL , QA) observed 1300 UTC 16 February 2019
Temperature: 26.0°C (79°F)
Dewpoint: 10.0°C (50°F) [RH = 37%]
Pressure (altimeter): 29.85 inches Hg (1011.0 mb)
Winds: from the SSE (160 degrees) at 12 MPH (10 knots; 5.1 m/s)
Visibility: 5 miles ( 8 km)
Ceiling: 12000 feet AGL
Clouds: few clouds at 2500 feet AGL
few clouds at 4000 feet AGL
broken clouds at 12000 feet AGL
Weather: no significant weather observed at this time

METAR text: OTHH 161200Z 16011KT 8000 FEW040TCU BKN120 27/11 Q1011 TEMPO -TSRA
Conditions at: OTHH (DOHA HAMAD INTL , QA) observed 1200 UTC 16 February 2019
Temperature: 27.0°C (81°F)
Dewpoint: 11.0°C (52°F) [RH = 37%]
Pressure (altimeter): 29.85 inches Hg (1011.0 mb)
Winds: from the SSE (160 degrees) at 13 MPH (11 knots; 5.7 m/s)
Visibility: 5 miles ( 8 km)
Ceiling: 12000 feet AGL
Clouds: few clouds at 4000 feet AGL
broken clouds at 12000 feet AGL
Weather: no significant weather observed at this time

METAR text: OTHH 161100Z 16012KT CAVOK 27/11 Q1011 NOSIG
Conditions at: OTHH (DOHA HAMAD INTL , QA) observed 1100 UTC 16 February 2019
Temperature: 27.0°C (81°F)
Dewpoint: 11.0°C (52°F) [RH = 37%]
Pressure (altimeter): 29.85 inches Hg (1011.0 mb)
Winds: from the SSE (160 degrees) at 14 MPH (12 knots; 6.2 m/s)
Visibility: 6 or more miles (10+ km)
Ceiling: ceiling and visibility are OK
Clouds: unknown
Weather: no significant weather observed at this time

METAR text: OTHH 161000Z 17013KT CAVOK 27/09 Q1012 NOSIG
Conditions at: OTHH (DOHA HAMAD INTL , QA) observed 1000 UTC 16 February 2019
Temperature: 27.0°C (81°F)
Dewpoint: 9.0°C (48°F) [RH = 32%]
Pressure (altimeter): 29.88 inches Hg (1012.0 mb)
Winds: from the S (170 degrees) at 15 MPH (13 knots; 6.7 m/s)
Visibility: 6 or more miles (10+ km)
Ceiling: ceiling and visibility are OK
Clouds: unknown
Weather: no significant weather observed at this time

METAR text: OTHH 160900Z 17014KT CAVOK 25/13 Q1013 NOSIG
Conditions at: OTHH (DOHA HAMAD INTL , QA) observed 0900 UTC 16 February 2019
Temperature: 25.0°C (77°F)
Dewpoint: 13.0°C (55°F) [RH = 47%]
Pressure (altimeter): 29.91 inches Hg (1013.0 mb)
Winds: from the S (170 degrees) at 16 MPH (14 knots; 7.2 m/s)
Visibility: 6 or more miles (10+ km)
Ceiling: ceiling and visibility are OK
Clouds: unknown
Weather: no significant weather observed at this time

METAR text: OTHH 160800Z 16018KT CAVOK 24/15 Q1014 NOSIG
Conditions at: OTHH (DOHA HAMAD INTL , QA) observed 0800 UTC 16 February 2019
Temperature: 24.0°C (75°F)
Dewpoint: 15.0°C (59°F) [RH = 57%]
Pressure (altimeter): 29.94 inches Hg (1014.0 mb)
Winds: from the SSE (160 degrees) at 21 MPH (18 knots; 9.3 m/s)
Visibility: 6 or more miles (10+ km)
Ceiling: ceiling and visibility are OK
Clouds: unknown
Weather: no significant weather observed at this time

METAR text: OTHH 160700Z 15016KT CAVOK 23/16 Q1015 NOSIG
Conditions at: OTHH (DOHA HAMAD INTL , QA) observed 0700 UTC 16 February 2019
Temperature: 23.0°C (73°F)
Dewpoint: 16.0°C (61°F) [RH = 65%]
Pressure (altimeter): 29.97 inches Hg (1015.0 mb)
Winds: from the SSE (150 degrees) at 18 MPH (16 knots; 8.2 m/s)
Visibility: 6 or more miles (10+ km)
Ceiling: ceiling and visibility are OK
Clouds: unknown
Weather: no significant weather observed at this time

METAR text: OTHH 160600Z 16015KT 9999 FEW030 BKN090 22/16 Q1015 RERA NOSIG
Conditions at: OTHH (DOHA HAMAD INTL , QA) observed 0600 UTC 16 February 2019
Temperature: 22.0°C (72°F)
Dewpoint: 16.0°C (61°F) [RH = 69%]
Pressure (altimeter): 29.97 inches Hg (1015.0 mb)
Winds: from the SSE (160 degrees) at 17 MPH (15 knots; 7.7 m/s)
Visibility: 6 or more miles (10+ km)
Ceiling: 9000 feet AGL
Clouds: few clouds at 3000 feet AGL
broken clouds at 9000 feet AGL
Weather: no significant weather observed at this time

METAR text: OTHH 160500Z 15016KT 9999 FEW030 BKN090 21/15 Q1014 RERA NOSIG
Conditions at: OTHH (DOHA HAMAD INTL , QA) observed 0500 UTC 16 February 2019
Temperature: 21.0°C (70°F)
Dewpoint: 15.0°C (59°F) [RH = 69%]
Pressure (altimeter): 29.94 inches Hg (1014.0 mb)
Winds: from the SSE (150 degrees) at 18 MPH (16 knots; 8.2 m/s)
Visibility: 6 or more miles (10+ km)
Ceiling: 9000 feet AGL
Clouds: few clouds at 3000 feet AGL
broken clouds at 9000 feet AGL
Weather: no significant weather observed at this time

METAR text: OTHH 160400Z 15015KT 9000 -RA FEW030 SCT080 BKN120 21/15 Q1014 NOSIG
Conditions at: OTHH (DOHA HAMAD INTL , QA) observed 0400 UTC 16 February 2019
Temperature: 21.0°C (70°F)
Dewpoint: 15.0°C (59°F) [RH = 69%]
Pressure (altimeter): 29.94 inches Hg (1014.0 mb)
Winds: from the SSE (150 degrees) at 17 MPH (15 knots; 7.7 m/s)
Visibility: 6 miles ( 9 km)
Ceiling: 12000 feet AGL
Clouds: few clouds at 3000 feet AGL
scattered clouds at 8000 feet AGL
broken clouds at 12000 feet AGL
Weather: -RA  (light rain)

METAR text: OTHH 160300Z 13023KT CAVOK 21/15 Q1012 NOSIG
Conditions at: OTHH (DOHA HAMAD INTL , QA) observed 0300 UTC 16 February 2019
Temperature: 21.0°C (70°F)
Dewpoint: 15.0°C (59°F) [RH = 69%]
Pressure (altimeter): 29.88 inches Hg (1012.0 mb)
Winds: from the SE (130 degrees) at 26 MPH (23 knots; 11.8 m/s)
Visibility: 6 or more miles (10+ km)
Ceiling: ceiling and visibility are OK
Clouds: unknown
Weather: no significant weather observed at this time

METAR text: OTHH 160200Z 13026KT 9999 FEW040 SCT080 BKN140 21/16 Q1011 RERA NOSIG
Conditions at: OTHH (DOHA HAMAD INTL , QA) observed 0200 UTC 16 February 2019
Temperature: 21.0°C (70°F)
Dewpoint: 16.0°C (61°F) [RH = 73%]
Pressure (altimeter): 29.85 inches Hg (1011.0 mb)
Winds: from the SE (130 degrees) at 30 MPH (26 knots; 13.4 m/s)
Visibility: 6 or more miles (10+ km)
Ceiling: 14000 feet AGL
Clouds: few clouds at 4000 feet AGL
scattered clouds at 8000 feet AGL
broken clouds at 14000 feet AGL
Weather: no significant weather observed at this time

METAR text: OTHH 160100Z 12012KT 9999 -RA FEW040 SCT100 BKN120 21/17 Q1014 NOSIG
Conditions at: OTHH (DOHA HAMAD INTL , QA) observed 0100 UTC 16 February 2019
Temperature: 21.0°C (70°F)
Dewpoint: 17.0°C (63°F) [RH = 78%]
Pressure (altimeter): 29.94 inches Hg (1014.0 mb)
Winds: from the ESE (120 degrees) at 14 MPH (12 knots; 6.2 m/s)
Visibility: 6 or more miles (10+ km)
Ceiling: 12000 feet AGL
Clouds: few clouds at 4000 feet AGL
scattered clouds at 10000 feet AGL
broken clouds at 12000 feet AGL
Weather: -RA  (light rain)

METAR text: OTHH 160000Z 11014KT 9999 FEW040 BKN140 21/16 Q1014 NOSIG
Conditions at: OTHH (DOHA HAMAD INTL , QA) observed 0000 UTC 16 February 2019
Temperature: 21.0°C (70°F)
Dewpoint: 16.0°C (61°F) [RH = 73%]
Pressure (altimeter): 29.94 inches Hg (1014.0 mb)
Winds: from the ESE (110 degrees) at 16 MPH (14 knots; 7.2 m/s)
Visibility: 6 or more miles (10+ km)
Ceiling: 14000 feet AGL
Clouds: few clouds at 4000 feet AGL
broken clouds at 14000 feet AGL
Weather: no significant weather observed at this time

METAR text: OTHH 152300Z 11007KT 9999 -RA FEW040 SCT120 BKN140 21/15 Q1015 NOSIG
Conditions at: OTHH (DOHA HAMAD INTL , QA) observed 2300 UTC 15 February 2019
Temperature: 21.0°C (70°F)
Dewpoint: 15.0°C (59°F) [RH = 69%]
Pressure (altimeter): 29.97 inches Hg (1015.0 mb)
Winds: from the ESE (110 degrees) at 8 MPH (7 knots; 3.6 m/s)
Visibility: 6 or more miles (10+ km)
Ceiling: 14000 feet AGL
Clouds: few clouds at 4000 feet AGL
scattered clouds at 12000 feet AGL
broken clouds at 14000 feet AGL
Weather: -RA  (light rain)

METAR text: OTHH 152200Z 07006KT 9999 -RA FEW040 SCT120 BKN140 21/16 Q1015 NOSIG
Conditions at: OTHH (DOHA HAMAD INTL , QA) observed 2200 UTC 15 February 2019
Temperature: 21.0°C (70°F)
Dewpoint: 16.0°C (61°F) [RH = 73%]
Pressure (altimeter): 29.97 inches Hg (1015.0 mb)
Winds: from the ENE (70 degrees) at 7 MPH (6 knots; 3.1 m/s)
Visibility: 6 or more miles (10+ km)
Ceiling: 14000 feet AGL
Clouds: few clouds at 4000 feet AGL
scattered clouds at 12000 feet AGL
broken clouds at 14000 feet AGL
Weather: -RA  (light rain)

METAR text: OTHH 152100Z 12015KT 9999 FEW040 SCT120 BKN160 21/16 Q1013 NOSIG
Conditions at: OTHH (DOHA HAMAD INTL , QA) observed 2100 UTC 15 February 2019
Temperature: 21.0°C (70°F)
Dewpoint: 16.0°C (61°F) [RH = 73%]
Pressure (altimeter): 29.91 inches Hg (1013.0 mb)
Winds: from the ESE (120 degrees) at 17 MPH (15 knots; 7.7 m/s)
Visibility: 6 or more miles (10+ km)
Ceiling: 16000 feet AGL
Clouds: few clouds at 4000 feet AGL
scattered clouds at 12000 feet AGL
broken clouds at 16000 feet AGL
Weather: no significant weather observed at this time

METAR text: OTHH 152000Z 11009KT 9999 FEW040 BKN140 20/15 Q1015 NOSIG
Conditions at: OTHH (DOHA HAMAD INTL , QA) observed 2000 UTC 15 February 2019
Temperature: 20.0°C (68°F)
Dewpoint: 15.0°C (59°F) [RH = 73%]
Pressure (altimeter): 29.97 inches Hg (1015.0 mb)
Winds: from the ESE (110 degrees) at 10 MPH (9 knots; 4.6 m/s)
Visibility: 6 or more miles (10+ km)
Ceiling: 14000 feet AGL
Clouds: few clouds at 4000 feet AGL
broken clouds at 14000 feet AGL
Weather: no significant weather observed at this time

METAR text: OTHH 151900Z 12007KT CAVOK 20/15 Q1016 NOSIG
Conditions at: OTHH (DOHA HAMAD INTL , QA) observed 1900 UTC 15 February 2019
Temperature: 20.0°C (68°F)
Dewpoint: 15.0°C (59°F) [RH = 73%]
Pressure (altimeter): 30.00 inches Hg (1016.0 mb)
Winds: from the ESE (120 degrees) at 8 MPH (7 knots; 3.6 m/s)
Visibility: 6 or more miles (10+ km)
Ceiling: ceiling and visibility are OK
Clouds: unknown
Weather: no significant weather observed at this time

METAR text: OTHH 151800Z 11009KT CAVOK 21/14 Q1016 NOSIG
Conditions at: OTHH (DOHA HAMAD INTL , QA) observed 1800 UTC 15 February 2019
Temperature: 21.0°C (70°F)
Dewpoint: 14.0°C (57°F) [RH = 64%]
Pressure (altimeter): 30.00 inches Hg (1016.0 mb)
Winds: from the ESE (110 degrees) at 10 MPH (9 knots; 4.6 m/s)
Visibility: 6 or more miles (10+ km)
Ceiling: ceiling and visibility are OK
Clouds: unknown
Weather: no significant weather observed at this time

METAR text: OTHH 151700Z AUTO 13010KT CAVOK 21/13 Q1016 NOSIG
Conditions at: OTHH (DOHA HAMAD INTL , QA) observed 1700 UTC 15 February 2019
Temperature: 21.0°C (70°F)
Dewpoint: 13.0°C (55°F) [RH = 60%]
Pressure (altimeter): 30.00 inches Hg (1016.0 mb)
Winds: from the SE (130 degrees) at 12 MPH (10 knots; 5.1 m/s)
Visibility: 6 or more miles (10+ km)
Ceiling: ceiling and visibility are OK
Clouds: unknown
Weather: no significant weather observed at this time

METAR text: OTHH 151600Z 12011KT CAVOK 21/13 Q1015 NOSIG
Conditions at: OTHH (DOHA HAMAD INTL , QA) observed 1600 UTC 15 February 2019
Temperature: 21.0°C (70°F)
Dewpoint: 13.0°C (55°F) [RH = 60%]
Pressure (altimeter): 29.97 inches Hg (1015.0 mb)
Winds: from the ESE (120 degrees) at 13 MPH (11 knots; 5.7 m/s)
Visibility: 6 or more miles (10+ km)
Ceiling: ceiling and visibility are OK
Clouds: unknown
Weather: no significant weather observed at this time

METAR text: OTHH 151500Z 13011KT CAVOK 21/14 Q1015 NOSIG
Conditions at: OTHH (DOHA HAMAD INTL , QA) observed 1500 UTC 15 February 2019
Temperature: 21.0°C (70°F)
Dewpoint: 14.0°C (57°F) [RH = 64%]
Pressure (altimeter): 29.97 inches Hg (1015.0 mb)
Winds: from the SE (130 degrees) at 13 MPH (11 knots; 5.7 m/s)
Visibility: 6 or more miles (10+ km)
Ceiling: ceiling and visibility are OK
Clouds: unknown
Weather: no significant weather observed at this time

METAR text: OTHH 151400Z 12013KT 9999 FEW040 SCT140 BKN220 21/13 Q1015 NOSIG
Conditions at: OTHH (DOHA HAMAD INTL , QA) observed 1400 UTC 15 February 2019
Temperature: 21.0°C (70°F)
Dewpoint: 13.0°C (55°F) [RH = 60%]
Pressure (altimeter): 29.97 inches Hg (1015.0 mb)
Winds: from the ESE (120 degrees) at 15 MPH (13 knots; 6.7 m/s)
Visibility: 6 or more miles (10+ km)
Ceiling: 22000 feet AGL
Clouds: few clouds at 4000 feet AGL
scattered clouds at 14000 feet AGL
broken clouds at 22000 feet AGL
Weather: no significant weather observed at this time

METAR text: OTHH 151300Z 14011KT CAVOK 21/14 Q1016 NOSIG
Conditions at: OTHH (DOHA HAMAD INTL , QA) observed 1300 UTC 15 February 2019
Temperature: 21.0°C (70°F)
Dewpoint: 14.0°C (57°F) [RH = 64%]
Pressure (altimeter): 30.00 inches Hg (1016.0 mb)
Winds: from the SE (140 degrees) at 13 MPH (11 knots; 5.7 m/s)
Visibility: 6 or more miles (10+ km)
Ceiling: ceiling and visibility are OK
Clouds: unknown
Weather: no significant weather observed at this time

METAR text: OTHH 151200Z 10010KT CAVOK 22/14 Q1016 NOSIG
Conditions at: OTHH (DOHA HAMAD INTL , QA) observed 1200 UTC 15 February 2019
Temperature: 22.0°C (72°F)
Dewpoint: 14.0°C (57°F) [RH = 60%]
Pressure (altimeter): 30.00 inches Hg (1016.0 mb)
Winds: from the E (100 degrees) at 12 MPH (10 knots; 5.1 m/s)
Visibility: 6 or more miles (10+ km)
Ceiling: ceiling and visibility are OK
Clouds: unknown
Weather: no significant weather observed at this time

METAR text: OTHH 151100Z 10010KT 070V130 9999 FEW030 BKN120 22/13 Q1016 NOSIG
Conditions at: OTHH (DOHA HAMAD INTL , QA) observed 1100 UTC 15 February 2019
Temperature: 22.0°C (72°F)
Dewpoint: 13.0°C (55°F) [RH = 57%]
Pressure (altimeter): 30.00 inches Hg (1016.0 mb)
Winds: from the E (100 degrees) at 12 MPH (10 knots; 5.1 m/s)
Visibility: 6 or more miles (10+ km)
Ceiling: 12000 feet AGL
Clouds: few clouds at 3000 feet AGL
broken clouds at 12000 feet AGL
Weather: no significant weather observed at this time

METAR text: OTHH 151000Z 06006KT 030V110 9999 FEW020 SCT120 22/13 Q1018 NOSIG
Conditions at: OTHH (DOHA HAMAD INTL , QA) observed 1000 UTC 15 February 2019
Temperature: 22.0°C (72°F)
Dewpoint: 13.0°C (55°F) [RH = 57%]
Pressure (altimeter): 30.06 inches Hg (1018.0 mb)
Winds: from the ENE (60 degrees) at 7 MPH (6 knots; 3.1 m/s)
Visibility: 6 or more miles (10+ km)
Ceiling: at least 12,000 feet AGL
Clouds: few clouds at 2000 feet AGL
scattered clouds at 12000 feet AGL
Weather: no significant weather observed at this time

Forecast for: OTHH (DOHA HAMAD INTL , QA)
Text: TAF OTHH 161636Z 1618/1724 33015KT 9999 FEW030 SCT100
Forecast period: 1800 UTC 16 February 2019 to 0000 UTC 18 February 2019
Forecast type: FROM: standard forecast or significant change
Winds: from the NNW (330 degrees) at 17 MPH (15 knots; 7.7 m/s)
Visibility: 6 or more miles 10+ km)
Ceiling: at least 12,000 feet AGL
Clouds: few clouds at 3000 feet AGL
scattered clouds at 10000 feet AGL
Weather: no significant weather forecast for this period
Text: TEMPO 1618/1706 33016G26KT 8000 -RA
Forecast period: 1800 UTC 16 February 2019 to 0600 UTC 17 February 2019
Forecast type: TEMPORARY: The following changes expected for less than half the time period
Winds: from the NNW (330 degrees) at 18 MPH (16 knots; 8.2 m/s)
gusting to 30 MPH (26 knots; 13.4 m/s)
Visibility: 5 miles (8 km)
Ceiling: unknown
Clouds: missing
Weather: -RA  (light rain)
Text: PROB30
Forecast period: 1800 UTC 16 February 2019 to 0400 UTC 17 February 2019
Forecast type: TEMPORARY: The following changes expected for less than half the time period
Visibility: 3 miles (5 km)
Ceiling: 9000 feet AGL
Clouds: few clouds at 3000 feet AGL
scattered clouds at 3000 feet AGL
broken clouds at 9000 feet AGL
Weather: -TSRA  (light rain associated with thunderstorm(s))